sensor_id;sensor_type;location;lat;lon;timestamp;P1;durP1;ratioP1;P2;durP2;ratioP2
18455;SDS011;9357;49.900;8.208;2023-04-24T00:00:04;1.47;;;1.30;;
18455;SDS011;9357;49.900;8.208;2023-04-24T00:01:40;1.47;;;1.07;;
18455;SDS011;9357;49.900;8.208;2023-04-24T00:03:12;2.37;;;1.17;;
18455;SDS011;9357;49.900;8.208;2023-04-24T00:04:45;1.90;;;1.17;;
18455;SDS011;9357;49.900;8.208;2023-04-24T00:06:18;1.77;;;1.20;;
18455;SDS011;9357;49.900;8.208;2023-04-24T00:07:50;1.87;;;1.13;;
18455;SDS011;9357;49.900;8.208;2023-04-24T00:09:24;1.63;;;1.20;;
18455;SDS011;9357;49.900;8.208;2023-04-24T00:10:57;1.20;;;1.10;;
18455;SDS011;9357;49.900;8.208;2023-04-24T00:12:29;1.27;;;1.17;;
18455;SDS011;9357;49.900;8.208;2023-04-24T00:14:03;2.07;;;1.10;;
18455;SDS011;9357;49.900;8.208;2023-04-24T00:15:37;1.40;;;1.20;;
18455;SDS011;9357;49.900;8.208;2023-04-24T00:17:10;1.40;;;1.20;;
18455;SDS011;9357;49.900;8.208;2023-04-24T00:18:41;2.07;;;1.30;;
18455;SDS011;9357;49.900;8.208;2023-04-24T00:20:16;3.27;;;1.30;;
18455;SDS011;9357;49.900;8.208;2023-04-24T00:21:50;1.63;;;1.27;;
18455;SDS011;9357;49.900;8.208;2023-04-24T00:23:22;2.17;;;1.20;;
18455;SDS011;9357;49.900;8.208;2023-04-24T00:24:56;3.07;;;1.40;;
18455;SDS011;9357;49.900;8.208;2023-04-24T00:26:29;3.93;;;1.50;;
18455;SDS011;9357;49.900;8.208;2023-04-24T00:28:01;1.43;;;1.20;;
18455;SDS011;9357;49.900;8.208;2023-04-24T00:29:34;1.53;;;1.27;;
18455;SDS011;9357;49.900;8.208;2023-04-24T00:31:08;2.10;;;1.40;;
18455;SDS011;9357;49.900;8.208;2023-04-24T00:32:41;1.67;;;1.20;;
18455;SDS011;9357;49.900;8.208;2023-04-24T00:34:14;1.40;;;1.30;;
18455;SDS011;9357;49.900;8.208;2023-04-24T00:35:47;2.57;;;1.43;;
18455;SDS011;9357;49.900;8.208;2023-04-24T00:37:18;1.80;;;1.27;;
18455;SDS011;9357;49.900;8.208;2023-04-24T00:38:51;1.93;;;1.27;;
18455;SDS011;9357;49.900;8.208;2023-04-24T00:40:24;2.50;;;1.20;;
18455;SDS011;9357;49.900;8.208;2023-04-24T00:41:57;2.47;;;1.37;;
18455;SDS011;9357;49.900;8.208;2023-04-24T00:43:30;2.67;;;1.20;;
18455;SDS011;9357;49.900;8.208;2023-04-24T00:45:03;2.80;;;1.40;;
18455;SDS011;9357;49.900;8.208;2023-04-24T00:46:38;1.50;;;1.40;;
18455;SDS011;9357;49.900;8.208;2023-04-24T00:48:11;1.93;;;1.23;;
18455;SDS011;9357;49.900;8.208;2023-04-24T00:49:44;2.07;;;1.47;;
18455;SDS011;9357;49.900;8.208;2023-04-24T00:51:16;2.90;;;1.33;;
18455;SDS011;9357;49.900;8.208;2023-04-24T00:52:49;3.17;;;1.13;;
18455;SDS011;9357;49.900;8.208;2023-04-24T00:54:22;2.20;;;1.40;;
18455;SDS011;9357;49.900;8.208;2023-04-24T00:55:55;1.80;;;1.50;;
18455;SDS011;9357;49.900;8.208;2023-04-24T00:57:27;2.33;;;1.10;;
18455;SDS011;9357;49.900;8.208;2023-04-24T00:59:00;5.37;;;1.40;;
18455;SDS011;9357;49.900;8.208;2023-04-24T01:00:33;1.50;;;1.03;;
18455;SDS011;9357;49.900;8.208;2023-04-24T01:02:07;3.13;;;1.20;;
18455;SDS011;9357;49.900;8.208;2023-04-24T01:03:42;2.97;;;1.10;;
18455;SDS011;9357;49.900;8.208;2023-04-24T01:05:15;2.00;;;1.40;;
18455;SDS011;9357;49.900;8.208;2023-04-24T01:06:48;1.97;;;1.00;;
18455;SDS011;9357;49.900;8.208;2023-04-24T01:08:24;1.77;;;1.20;;
18455;SDS011;9357;49.900;8.208;2023-04-24T01:09:57;1.70;;;1.30;;
18455;SDS011;9357;49.900;8.208;2023-04-24T01:11:30;1.63;;;1.17;;
18455;SDS011;9357;49.900;8.208;2023-04-24T01:13:02;2.00;;;1.20;;
18455;SDS011;9357;49.900;8.208;2023-04-24T01:14:35;1.53;;;1.30;;
18455;SDS011;9357;49.900;8.208;2023-04-24T01:16:09;1.07;;;1.07;;
18455;SDS011;9357;49.900;8.208;2023-04-24T01:17:43;2.50;;;1.07;;
18455;SDS011;9357;49.900;8.208;2023-04-24T01:19:16;2.83;;;1.27;;
18455;SDS011;9357;49.900;8.208;2023-04-24T01:20:51;1.70;;;1.33;;
18455;SDS011;9357;49.900;8.208;2023-04-24T01:22:27;3.10;;;1.40;;
18455;SDS011;9357;49.900;8.208;2023-04-24T01:24:00;2.13;;;1.40;;
18455;SDS011;9357;49.900;8.208;2023-04-24T01:25:33;1.30;;;1.17;;
18455;SDS011;9357;49.900;8.208;2023-04-24T01:27:06;2.43;;;1.20;;
18455;SDS011;9357;49.900;8.208;2023-04-24T01:28:38;2.00;;;1.17;;
18455;SDS011;9357;49.900;8.208;2023-04-24T01:30:11;2.37;;;1.30;;
18455;SDS011;9357;49.900;8.208;2023-04-24T01:31:44;1.43;;;1.20;;
18455;SDS011;9357;49.900;8.208;2023-04-24T01:33:17;1.40;;;1.30;;
18455;SDS011;9357;49.900;8.208;2023-04-24T01:34:49;1.30;;;1.20;;
18455;SDS011;9357;49.900;8.208;2023-04-24T01:36:22;2.00;;;1.47;;
18455;SDS011;9357;49.900;8.208;2023-04-24T01:37:58;1.83;;;1.13;;
18455;SDS011;9357;49.900;8.208;2023-04-24T01:39:31;2.03;;;1.37;;
18455;SDS011;9357;49.900;8.208;2023-04-24T01:41:04;2.20;;;1.30;;
18455;SDS011;9357;49.900;8.208;2023-04-24T01:42:36;1.40;;;1.30;;
18455;SDS011;9357;49.900;8.208;2023-04-24T01:44:09;2.77;;;1.23;;
18455;SDS011;9357;49.900;8.208;2023-04-24T01:45:42;3.70;;;1.20;;
18455;SDS011;9357;49.900;8.208;2023-04-24T01:47:15;2.20;;;1.20;;
18455;SDS011;9357;49.900;8.208;2023-04-24T01:48:48;2.93;;;1.40;;
18455;SDS011;9357;49.900;8.208;2023-04-24T01:50:20;1.80;;;1.20;;
18455;SDS011;9357;49.900;8.208;2023-04-24T01:51:53;2.83;;;1.50;;
18455;SDS011;9357;49.900;8.208;2023-04-24T01:53:27;2.37;;;1.47;;
18455;SDS011;9357;49.900;8.208;2023-04-24T01:55:00;1.47;;;1.37;;
18455;SDS011;9357;49.900;8.208;2023-04-24T01:56:33;1.47;;;1.30;;
18455;SDS011;9357;49.900;8.208;2023-04-24T01:58:06;4.17;;;1.70;;
18455;SDS011;9357;49.900;8.208;2023-04-24T01:59:39;3.17;;;1.50;;
18455;SDS011;9357;49.900;8.208;2023-04-24T02:01:14;2.63;;;1.40;;
18455;SDS011;9357;49.900;8.208;2023-04-24T02:02:49;2.90;;;1.40;;
18455;SDS011;9357;49.900;8.208;2023-04-24T02:04:22;3.37;;;1.37;;
18455;SDS011;9357;49.900;8.208;2023-04-24T02:05:55;2.80;;;1.43;;
18455;SDS011;9357;49.900;8.208;2023-04-24T02:07:28;1.70;;;1.40;;
18455;SDS011;9357;49.900;8.208;2023-04-24T02:09:02;1.27;;;1.20;;
18455;SDS011;9357;49.900;8.208;2023-04-24T02:10:35;2.57;;;1.63;;
18455;SDS011;9357;49.900;8.208;2023-04-24T02:12:08;1.30;;;1.20;;
18455;SDS011;9357;49.900;8.208;2023-04-24T02:13:40;3.03;;;1.47;;
18455;SDS011;9357;49.900;8.208;2023-04-24T02:15:13;4.50;;;1.50;;
18455;SDS011;9357;49.900;8.208;2023-04-24T02:16:46;1.33;;;1.30;;
18455;SDS011;9357;49.900;8.208;2023-04-24T02:18:18;2.20;;;1.30;;
18455;SDS011;9357;49.900;8.208;2023-04-24T02:19:51;2.03;;;1.43;;
18455;SDS011;9357;49.900;8.208;2023-04-24T02:21:23;1.87;;;1.20;;
18455;SDS011;9357;49.900;8.208;2023-04-24T02:22:56;3.27;;;1.10;;
18455;SDS011;9357;49.900;8.208;2023-04-24T02:24:30;1.57;;;1.30;;
18455;SDS011;9357;49.900;8.208;2023-04-24T02:26:03;2.10;;;1.40;;
18455;SDS011;9357;49.900;8.208;2023-04-24T02:27:35;2.80;;;1.33;;
18455;SDS011;9357;49.900;8.208;2023-04-24T02:29:07;3.07;;;1.30;;
18455;SDS011;9357;49.900;8.208;2023-04-24T02:30:40;1.50;;;1.30;;
18455;SDS011;9357;49.900;8.208;2023-04-24T02:32:13;1.30;;;1.20;;
18455;SDS011;9357;49.900;8.208;2023-04-24T02:33:46;1.83;;;1.10;;
18455;SDS011;9357;49.900;8.208;2023-04-24T02:35:19;1.20;;;1.10;;
18455;SDS011;9357;49.900;8.208;2023-04-24T02:36:52;3.73;;;1.30;;
18455;SDS011;9357;49.900;8.208;2023-04-24T02:38:25;3.70;;;1.30;;
18455;SDS011;9357;49.900;8.208;2023-04-24T02:40:00;2.10;;;1.50;;
18455;SDS011;9357;49.900;8.208;2023-04-24T02:41:32;2.43;;;1.17;;
18455;SDS011;9357;49.900;8.208;2023-04-24T02:43:05;1.33;;;1.27;;
18455;SDS011;9357;49.900;8.208;2023-04-24T02:44:38;1.97;;;1.30;;
18455;SDS011;9357;49.900;8.208;2023-04-24T02:46:11;1.33;;;1.10;;
18455;SDS011;9357;49.900;8.208;2023-04-24T02:47:44;1.20;;;1.10;;
18455;SDS011;9357;49.900;8.208;2023-04-24T02:49:17;3.53;;;1.10;;
18455;SDS011;9357;49.900;8.208;2023-04-24T02:50:49;1.57;;;1.20;;
18455;SDS011;9357;49.900;8.208;2023-04-24T02:52:22;1.93;;;1.10;;
18455;SDS011;9357;49.900;8.208;2023-04-24T02:53:55;2.07;;;1.13;;
18455;SDS011;9357;49.900;8.208;2023-04-24T02:55:29;2.23;;;1.20;;
18455;SDS011;9357;49.900;8.208;2023-04-24T02:57:01;0.80;;;0.80;;
18455;SDS011;9357;49.900;8.208;2023-04-24T02:58:34;1.40;;;1.00;;
18455;SDS011;9357;49.900;8.208;2023-04-24T03:00:08;2.00;;;1.10;;
18455;SDS011;9357;49.900;8.208;2023-04-24T03:01:42;1.30;;;1.20;;
18455;SDS011;9357;49.900;8.208;2023-04-24T03:03:15;1.20;;;0.90;;
18455;SDS011;9357;49.900;8.208;2023-04-24T03:04:47;1.30;;;1.10;;
18455;SDS011;9357;49.900;8.208;2023-04-24T03:06:20;3.00;;;1.10;;
18455;SDS011;9357;49.900;8.208;2023-04-24T03:07:52;1.73;;;0.97;;
18455;SDS011;9357;49.900;8.208;2023-04-24T03:09:24;2.30;;;1.00;;
18455;SDS011;9357;49.900;8.208;2023-04-24T03:10:57;1.20;;;0.97;;
18455;SDS011;9357;49.900;8.208;2023-04-24T03:12:30;2.10;;;1.00;;
18455;SDS011;9357;49.900;8.208;2023-04-24T03:14:03;1.10;;;1.00;;
18455;SDS011;9357;49.900;8.208;2023-04-24T03:15:36;1.17;;;1.17;;
18455;SDS011;9357;49.900;8.208;2023-04-24T03:17:08;1.17;;;1.10;;
18455;SDS011;9357;49.900;8.208;2023-04-24T03:18:41;1.33;;;1.23;;
18455;SDS011;9357;49.900;8.208;2023-04-24T03:20:13;1.50;;;1.37;;
18455;SDS011;9357;49.900;8.208;2023-04-24T03:21:46;1.60;;;1.10;;
18455;SDS011;9357;49.900;8.208;2023-04-24T03:23:18;1.60;;;1.30;;
18455;SDS011;9357;49.900;8.208;2023-04-24T03:24:51;1.57;;;1.40;;
18455;SDS011;9357;49.900;8.208;2023-04-24T03:26:25;1.40;;;1.30;;
18455;SDS011;9357;49.900;8.208;2023-04-24T03:27:57;1.33;;;1.20;;
18455;SDS011;9357;49.900;8.208;2023-04-24T03:29:29;1.27;;;1.27;;
18455;SDS011;9357;49.900;8.208;2023-04-24T03:31:02;2.83;;;1.40;;
18455;SDS011;9357;49.900;8.208;2023-04-24T03:32:35;1.40;;;1.30;;
18455;SDS011;9357;49.900;8.208;2023-04-24T03:34:08;1.40;;;1.30;;
18455;SDS011;9357;49.900;8.208;2023-04-24T03:35:41;1.20;;;1.20;;
18455;SDS011;9357;49.900;8.208;2023-04-24T03:37:13;1.43;;;1.33;;
18455;SDS011;9357;49.900;8.208;2023-04-24T03:38:46;1.90;;;1.40;;
18455;SDS011;9357;49.900;8.208;2023-04-24T03:40:19;1.37;;;1.27;;
18455;SDS011;9357;49.900;8.208;2023-04-24T03:41:53;1.40;;;1.30;;
18455;SDS011;9357;49.900;8.208;2023-04-24T03:43:26;2.40;;;1.40;;
18455;SDS011;9357;49.900;8.208;2023-04-24T03:44:59;2.63;;;1.50;;
18455;SDS011;9357;49.900;8.208;2023-04-24T03:46:32;1.40;;;1.30;;
18455;SDS011;9357;49.900;8.208;2023-04-24T03:48:05;1.70;;;1.60;;
18455;SDS011;9357;49.900;8.208;2023-04-24T03:49:36;3.20;;;1.77;;
18455;SDS011;9357;49.900;8.208;2023-04-24T03:51:09;2.10;;;1.60;;
18455;SDS011;9357;49.900;8.208;2023-04-24T03:52:42;1.70;;;1.60;;
18455;SDS011;9357;49.900;8.208;2023-04-24T03:54:15;2.63;;;1.80;;
18455;SDS011;9357;49.900;8.208;2023-04-24T03:55:46;5.50;;;2.00;;
18455;SDS011;9357;49.900;8.208;2023-04-24T03:57:21;1.97;;;1.70;;
18455;SDS011;9357;49.900;8.208;2023-04-24T03:58:53;2.60;;;1.80;;
18455;SDS011;9357;49.900;8.208;2023-04-24T04:00:26;2.23;;;1.63;;
18455;SDS011;9357;49.900;8.208;2023-04-24T04:01:58;2.25;;;2.05;;
18455;SDS011;9357;49.900;8.208;2023-04-24T04:03:31;2.77;;;2.13;;
18455;SDS011;9357;49.900;8.208;2023-04-24T04:05:04;2.43;;;2.23;;
18455;SDS011;9357;49.900;8.208;2023-04-24T04:06:37;2.30;;;2.20;;
18455;SDS011;9357;49.900;8.208;2023-04-24T04:08:10;2.33;;;2.23;;
18455;SDS011;9357;49.900;8.208;2023-04-24T04:09:43;3.60;;;2.30;;
18455;SDS011;9357;49.900;8.208;2023-04-24T04:11:15;2.53;;;2.33;;
18455;SDS011;9357;49.900;8.208;2023-04-24T04:12:49;3.13;;;2.80;;
18455;SDS011;9357;49.900;8.208;2023-04-24T04:14:22;2.90;;;2.50;;
18455;SDS011;9357;49.900;8.208;2023-04-24T04:15:55;2.50;;;2.30;;
18455;SDS011;9357;49.900;8.208;2023-04-24T04:17:28;2.50;;;2.30;;
18455;SDS011;9357;49.900;8.208;2023-04-24T04:19:00;2.67;;;2.47;;
18455;SDS011;9357;49.900;8.208;2023-04-24T04:20:34;3.33;;;2.22;;
18455;SDS011;9357;49.900;8.208;2023-04-24T04:22:06;5.18;;;2.67;;
18455;SDS011;9357;49.900;8.208;2023-04-24T04:23:39;2.92;;;2.72;;
18455;SDS011;9357;49.900;8.208;2023-04-24T04:25:12;3.15;;;2.58;;
18455;SDS011;9357;49.900;8.208;2023-04-24T04:26:45;3.35;;;2.67;;
18455;SDS011;9357;49.900;8.208;2023-04-24T04:28:19;2.70;;;2.50;;
18455;SDS011;9357;49.900;8.208;2023-04-24T04:29:52;3.17;;;2.50;;
18455;SDS011;9357;49.900;8.208;2023-04-24T04:31:25;3.42;;;2.75;;
18455;SDS011;9357;49.900;8.208;2023-04-24T04:32:57;2.70;;;2.50;;
18455;SDS011;9357;49.900;8.208;2023-04-24T04:34:30;2.83;;;2.63;;
18455;SDS011;9357;49.900;8.208;2023-04-24T04:36:02;3.28;;;2.80;;
18455;SDS011;9357;49.900;8.208;2023-04-24T04:37:35;3.03;;;2.80;;
18455;SDS011;9357;49.900;8.208;2023-04-24T04:39:09;3.03;;;2.72;;
18455;SDS011;9357;49.900;8.208;2023-04-24T04:40:40;2.90;;;2.70;;
18455;SDS011;9357;49.900;8.208;2023-04-24T04:42:13;2.67;;;2.47;;
18455;SDS011;9357;49.900;8.208;2023-04-24T04:43:47;5.22;;;3.00;;
18455;SDS011;9357;49.900;8.208;2023-04-24T04:45:19;5.45;;;2.83;;
18455;SDS011;9357;49.900;8.208;2023-04-24T04:46:52;3.65;;;3.00;;
18455;SDS011;9357;49.900;8.208;2023-04-24T04:48:27;5.70;;;3.22;;
18455;SDS011;9357;49.900;8.208;2023-04-24T04:50:02;3.15;;;2.85;;
18455;SDS011;9357;49.900;8.208;2023-04-24T04:51:36;3.35;;;3.10;;
18455;SDS011;9357;49.900;8.208;2023-04-24T04:53:11;2.83;;;2.63;;
18455;SDS011;9357;49.900;8.208;2023-04-24T04:54:44;3.33;;;3.13;;
18455;SDS011;9357;49.900;8.208;2023-04-24T04:56:17;3.15;;;2.85;;
18455;SDS011;9357;49.900;8.208;2023-04-24T04:57:50;2.80;;;2.60;;
18455;SDS011;9357;49.900;8.208;2023-04-24T04:59:24;2.80;;;2.60;;
18455;SDS011;9357;49.900;8.208;2023-04-24T05:00:57;2.83;;;2.63;;
18455;SDS011;9357;49.900;8.208;2023-04-24T05:02:30;3.17;;;2.97;;
18455;SDS011;9357;49.900;8.208;2023-04-24T05:04:03;2.97;;;2.78;;
18455;SDS011;9357;49.900;8.208;2023-04-24T05:05:36;3.42;;;2.90;;
18455;SDS011;9357;49.900;8.208;2023-04-24T05:07:11;3.47;;;3.13;;
18455;SDS011;9357;49.900;8.208;2023-04-24T05:08:44;2.95;;;2.75;;
18455;SDS011;9357;49.900;8.208;2023-04-24T05:10:16;3.38;;;3.10;;
18455;SDS011;9357;49.900;8.208;2023-04-24T05:11:48;3.47;;;3.17;;
18455;SDS011;9357;49.900;8.208;2023-04-24T05:13:21;3.40;;;3.20;;
18455;SDS011;9357;49.900;8.208;2023-04-24T05:15:11;3.17;;;2.70;;
18455;SDS011;9357;49.900;8.208;2023-04-24T05:16:44;3.05;;;2.75;;
18455;SDS011;9357;49.900;8.208;2023-04-24T05:18:17;2.88;;;2.67;;
18455;SDS011;9357;49.900;8.208;2023-04-24T05:19:50;3.00;;;2.80;;
18455;SDS011;9357;49.900;8.208;2023-04-24T05:21:22;4.00;;;2.95;;
18455;SDS011;9357;49.900;8.208;2023-04-24T05:22:56;5.10;;;2.83;;
18455;SDS011;9357;49.900;8.208;2023-04-24T05:24:29;3.50;;;3.20;;
18455;SDS011;9357;49.900;8.208;2023-04-24T05:26:01;4.20;;;3.00;;
18455;SDS011;9357;49.900;8.208;2023-04-24T05:27:37;3.40;;;3.10;;
18455;SDS011;9357;49.900;8.208;2023-04-24T05:29:11;3.78;;;3.33;;
18455;SDS011;9357;49.900;8.208;2023-04-24T05:30:45;3.90;;;3.60;;
18455;SDS011;9357;49.900;8.208;2023-04-24T05:32:18;3.58;;;3.15;;
18455;SDS011;9357;49.900;8.208;2023-04-24T05:33:51;4.00;;;2.97;;
18455;SDS011;9357;49.900;8.208;2023-04-24T05:35:23;3.10;;;2.90;;
18455;SDS011;9357;49.900;8.208;2023-04-24T05:36:56;3.33;;;3.03;;
18455;SDS011;9357;49.900;8.208;2023-04-24T05:38:29;3.90;;;3.60;;
18455;SDS011;9357;49.900;8.208;2023-04-24T05:40:02;3.93;;;3.63;;
18455;SDS011;9357;49.900;8.208;2023-04-24T05:41:36;4.15;;;3.67;;
18455;SDS011;9357;49.900;8.208;2023-04-24T05:43:09;5.88;;;3.70;;
18455;SDS011;9357;49.900;8.208;2023-04-24T05:44:42;3.95;;;3.58;;
18455;SDS011;9357;49.900;8.208;2023-04-24T05:46:16;4.20;;;3.80;;
18455;SDS011;9357;49.900;8.208;2023-04-24T05:47:48;3.60;;;3.17;;
18455;SDS011;9357;49.900;8.208;2023-04-24T05:49:23;3.67;;;3.35;;
18455;SDS011;9357;49.900;8.208;2023-04-24T05:50:56;4.20;;;3.90;;
18455;SDS011;9357;49.900;8.208;2023-04-24T05:52:28;3.78;;;3.42;;
18455;SDS011;9357;49.900;8.208;2023-04-24T05:54:01;4.00;;;3.65;;
18455;SDS011;9357;49.900;8.208;2023-04-24T05:55:34;4.10;;;3.75;;
18455;SDS011;9357;49.900;8.208;2023-04-24T05:57:07;3.95;;;3.65;;
18455;SDS011;9357;49.900;8.208;2023-04-24T05:58:40;4.13;;;3.78;;
18455;SDS011;9357;49.900;8.208;2023-04-24T06:00:13;5.47;;;3.90;;
18455;SDS011;9357;49.900;8.208;2023-04-24T06:01:48;5.93;;;4.13;;
18455;SDS011;9357;49.900;8.208;2023-04-24T06:03:21;4.38;;;4.07;;
18455;SDS011;9357;49.900;8.208;2023-04-24T06:04:54;5.20;;;4.20;;
18455;SDS011;9357;49.900;8.208;2023-04-24T06:06:28;4.85;;;4.00;;
18455;SDS011;9357;49.900;8.208;2023-04-24T06:08:03;4.57;;;4.18;;
18455;SDS011;9357;49.900;8.208;2023-04-24T06:09:36;4.88;;;4.40;;
18455;SDS011;9357;49.900;8.208;2023-04-24T06:11:09;4.80;;;4.43;;
18455;SDS011;9357;49.900;8.208;2023-04-24T06:12:42;5.63;;;4.55;;
18455;SDS011;9357;49.900;8.208;2023-04-24T06:14:14;4.78;;;4.32;;
18455;SDS011;9357;49.900;8.208;2023-04-24T06:15:47;4.70;;;4.30;;
18455;SDS011;9357;49.900;8.208;2023-04-24T06:17:21;5.20;;;4.70;;
18455;SDS011;9357;49.900;8.208;2023-04-24T06:18:54;5.70;;;4.60;;
18455;SDS011;9357;49.900;8.208;2023-04-24T06:20:27;4.87;;;4.47;;
18455;SDS011;9357;49.900;8.208;2023-04-24T06:21:59;5.00;;;4.50;;
18455;SDS011;9357;49.900;8.208;2023-04-24T06:23:32;5.32;;;4.60;;
18455;SDS011;9357;49.900;8.208;2023-04-24T06:25:05;7.00;;;5.07;;
18455;SDS011;9357;49.900;8.208;2023-04-24T06:26:39;7.25;;;4.78;;
18455;SDS011;9357;49.900;8.208;2023-04-24T06:28:12;5.57;;;5.07;;
18455;SDS011;9357;49.900;8.208;2023-04-24T06:29:44;5.40;;;4.90;;
18455;SDS011;9357;49.900;8.208;2023-04-24T06:31:16;5.03;;;4.53;;
18455;SDS011;9357;49.900;8.208;2023-04-24T06:32:50;4.73;;;4.33;;
18455;SDS011;9357;49.900;8.208;2023-04-24T06:34:23;4.90;;;4.50;;
18455;SDS011;9357;49.900;8.208;2023-04-24T06:35:56;4.93;;;4.53;;
18455;SDS011;9357;49.900;8.208;2023-04-24T06:37:28;5.03;;;4.57;;
18455;SDS011;9357;49.900;8.208;2023-04-24T06:39:01;5.00;;;4.50;;
18455;SDS011;9357;49.900;8.208;2023-04-24T06:40:34;6.53;;;4.30;;
18455;SDS011;9357;49.900;8.208;2023-04-24T06:42:07;5.13;;;4.63;;
18455;SDS011;9357;49.900;8.208;2023-04-24T06:43:40;5.80;;;4.80;;
18455;SDS011;9357;49.900;8.208;2023-04-24T06:45:13;5.10;;;4.60;;
18455;SDS011;9357;49.900;8.208;2023-04-24T06:46:46;5.90;;;5.10;;
18455;SDS011;9357;49.900;8.208;2023-04-24T06:48:20;5.30;;;4.80;;
18455;SDS011;9357;49.900;8.208;2023-04-24T06:49:53;5.33;;;4.83;;
18455;SDS011;9357;49.900;8.208;2023-04-24T06:51:26;6.60;;;5.00;;
18455;SDS011;9357;49.900;8.208;2023-04-24T06:52:59;5.27;;;4.40;;
18455;SDS011;9357;49.900;8.208;2023-04-24T06:54:32;5.43;;;4.93;;
18455;SDS011;9357;49.900;8.208;2023-04-24T06:56:05;6.37;;;4.87;;
18455;SDS011;9357;49.900;8.208;2023-04-24T06:57:37;5.32;;;4.82;;
18455;SDS011;9357;49.900;8.208;2023-04-24T06:59:10;6.67;;;5.30;;
18455;SDS011;9357;49.900;8.208;2023-04-24T07:00:43;5.60;;;5.10;;
18455;SDS011;9357;49.900;8.208;2023-04-24T07:02:16;6.63;;;5.23;;
18455;SDS011;9357;49.900;8.208;2023-04-24T07:03:50;5.50;;;5.00;;
18455;SDS011;9357;49.900;8.208;2023-04-24T07:05:23;6.57;;;4.90;;
18455;SDS011;9357;49.900;8.208;2023-04-24T07:06:56;6.13;;;4.80;;
18455;SDS011;9357;49.900;8.208;2023-04-24T07:08:29;5.03;;;4.50;;
18455;SDS011;9357;49.900;8.208;2023-04-24T07:10:03;8.03;;;4.70;;
18455;SDS011;9357;49.900;8.208;2023-04-24T07:11:36;5.07;;;4.57;;
18455;SDS011;9357;49.900;8.208;2023-04-24T07:13:10;6.23;;;4.40;;
18455;SDS011;9357;49.900;8.208;2023-04-24T07:14:43;5.87;;;3.93;;
18455;SDS011;9357;49.900;8.208;2023-04-24T07:16:16;4.93;;;3.97;;
18455;SDS011;9357;49.900;8.208;2023-04-24T07:17:48;4.53;;;3.83;;
18455;SDS011;9357;49.900;8.208;2023-04-24T07:19:23;5.17;;;3.90;;
18455;SDS011;9357;49.900;8.208;2023-04-24T07:20:56;4.17;;;3.77;;
18455;SDS011;9357;49.900;8.208;2023-04-24T07:22:28;5.30;;;3.77;;
18455;SDS011;9357;49.900;8.208;2023-04-24T07:24:01;5.30;;;3.60;;
18455;SDS011;9357;49.900;8.208;2023-04-24T07:25:34;3.37;;;3.17;;
18455;SDS011;9357;49.900;8.208;2023-04-24T07:27:07;4.57;;;3.40;;
18455;SDS011;9357;49.900;8.208;2023-04-24T07:28:39;6.63;;;3.77;;
18455;SDS011;9357;49.900;8.208;2023-04-24T07:30:12;4.17;;;3.43;;
18455;SDS011;9357;49.900;8.208;2023-04-24T07:31:45;3.90;;;3.40;;
18455;SDS011;9357;49.900;8.208;2023-04-24T07:33:18;3.93;;;3.23;;
18455;SDS011;9357;49.900;8.208;2023-04-24T07:34:52;2.97;;;2.77;;
18455;SDS011;9357;49.900;8.208;2023-04-24T07:36:25;3.03;;;2.70;;
18455;SDS011;9357;49.900;8.208;2023-04-24T07:37:59;3.20;;;2.90;;
18455;SDS011;9357;49.900;8.208;2023-04-24T07:39:31;3.50;;;3.20;;
18455;SDS011;9357;49.900;8.208;2023-04-24T07:41:04;4.87;;;3.00;;
18455;SDS011;9357;49.900;8.208;2023-04-24T07:42:37;4.50;;;3.00;;
18455;SDS011;9357;49.900;8.208;2023-04-24T07:44:10;3.60;;;3.30;;
18455;SDS011;9357;49.900;8.208;2023-04-24T07:45:42;3.30;;;2.97;;
18455;SDS011;9357;49.900;8.208;2023-04-24T07:47:16;4.83;;;3.00;;
18455;SDS011;9357;49.900;8.208;2023-04-24T07:48:48;4.17;;;3.03;;
18455;SDS011;9357;49.900;8.208;2023-04-24T07:50:41;3.93;;;2.80;;
18455;SDS011;9357;49.900;8.208;2023-04-24T07:52:13;3.17;;;2.97;;
18455;SDS011;9357;49.900;8.208;2023-04-24T07:53:46;2.83;;;2.63;;
18455;SDS011;9357;49.900;8.208;2023-04-24T07:55:19;3.40;;;2.70;;
18455;SDS011;9357;49.900;8.208;2023-04-24T07:56:56;3.10;;;2.73;;
18455;SDS011;9357;49.900;8.208;2023-04-24T07:58:28;3.33;;;2.93;;
18455;SDS011;9357;49.900;8.208;2023-04-24T08:00:02;3.03;;;2.83;;
18455;SDS011;9357;49.900;8.208;2023-04-24T08:01:35;2.60;;;2.40;;
18455;SDS011;9357;49.900;8.208;2023-04-24T08:03:08;3.83;;;2.53;;
18455;SDS011;9357;49.900;8.208;2023-04-24T08:04:41;2.97;;;2.70;;
18455;SDS011;9357;49.900;8.208;2023-04-24T08:06:15;2.70;;;2.50;;
18455;SDS011;9357;49.900;8.208;2023-04-24T08:07:48;2.50;;;2.40;;
18455;SDS011;9357;49.900;8.208;2023-04-24T08:09:21;2.80;;;2.30;;
18455;SDS011;9357;49.900;8.208;2023-04-24T08:10:56;2.50;;;2.30;;
18455;SDS011;9357;49.900;8.208;2023-04-24T08:12:29;2.67;;;2.47;;
18455;SDS011;9357;49.900;8.208;2023-04-24T08:14:02;2.60;;;2.40;;
18455;SDS011;9357;49.900;8.208;2023-04-24T08:15:34;2.40;;;2.20;;
18455;SDS011;9357;49.900;8.208;2023-04-24T08:17:07;2.83;;;2.40;;
18455;SDS011;9357;49.900;8.208;2023-04-24T08:18:40;2.20;;;2.00;;
18455;SDS011;9357;49.900;8.208;2023-04-24T08:20:13;2.30;;;2.20;;
18455;SDS011;9357;49.900;8.208;2023-04-24T08:21:47;3.30;;;2.40;;
18455;SDS011;9357;49.900;8.208;2023-04-24T08:23:19;2.70;;;2.50;;
18455;SDS011;9357;49.900;8.208;2023-04-24T08:24:53;2.90;;;2.47;;
18455;SDS011;9357;49.900;8.208;2023-04-24T08:26:27;6.37;;;2.87;;
18455;SDS011;9357;49.900;8.208;2023-04-24T08:28:00;2.60;;;2.40;;
18455;SDS011;9357;49.900;8.208;2023-04-24T08:29:33;2.67;;;2.47;;
18455;SDS011;9357;49.900;8.208;2023-04-24T08:31:06;2.80;;;2.60;;
18455;SDS011;9357;49.900;8.208;2023-04-24T08:32:39;3.10;;;2.90;;
18455;SDS011;9357;49.900;8.208;2023-04-24T08:34:12;3.03;;;2.80;;
18455;SDS011;9357;49.900;8.208;2023-04-24T08:35:45;3.00;;;2.70;;
18455;SDS011;9357;49.900;8.208;2023-04-24T08:37:19;3.77;;;3.00;;
18455;SDS011;9357;49.900;8.208;2023-04-24T08:38:52;3.23;;;2.83;;
18455;SDS011;9357;49.900;8.208;2023-04-24T08:40:27;3.23;;;2.93;;
18455;SDS011;9357;49.900;8.208;2023-04-24T08:42:01;3.23;;;2.93;;
18455;SDS011;9357;49.900;8.208;2023-04-24T08:43:38;3.27;;;2.93;;
18455;SDS011;9357;49.900;8.208;2023-04-24T08:45:12;4.00;;;2.93;;
18455;SDS011;9357;49.900;8.208;2023-04-24T08:46:46;3.90;;;2.93;;
18455;SDS011;9357;49.900;8.208;2023-04-24T08:48:20;3.00;;;2.70;;
18455;SDS011;9357;49.900;8.208;2023-04-24T08:50:02;3.40;;;3.10;;
18455;SDS011;9357;49.900;8.208;2023-04-24T08:51:36;3.30;;;3.00;;
18455;SDS011;9357;49.900;8.208;2023-04-24T08:53:11;3.60;;;2.80;;
18455;SDS011;9357;49.900;8.208;2023-04-24T08:54:44;3.63;;;2.90;;
18455;SDS011;9357;49.900;8.208;2023-04-24T08:56:18;3.23;;;2.90;;
18455;SDS011;9357;49.900;8.208;2023-04-24T08:57:52;3.00;;;2.80;;
18455;SDS011;9357;49.900;8.208;2023-04-24T08:59:25;2.90;;;2.70;;
18455;SDS011;9357;49.900;8.208;2023-04-24T09:00:58;3.37;;;2.93;;
18455;SDS011;9357;49.900;8.208;2023-04-24T09:02:31;3.60;;;2.70;;
18455;SDS011;9357;49.900;8.208;2023-04-24T09:04:06;5.20;;;2.80;;
18455;SDS011;9357;49.900;8.208;2023-04-24T09:05:42;2.80;;;2.60;;
18455;SDS011;9357;49.900;8.208;2023-04-24T09:07:17;3.03;;;2.53;;
18455;SDS011;9357;49.900;8.208;2023-04-24T09:08:55;2.80;;;2.60;;
18455;SDS011;9357;49.900;8.208;2023-04-24T09:10:29;2.33;;;2.20;;
18455;SDS011;9357;49.900;8.208;2023-04-24T09:12:02;3.13;;;2.63;;
18455;SDS011;9357;49.900;8.208;2023-04-24T09:13:35;4.63;;;2.70;;
18455;SDS011;9357;49.900;8.208;2023-04-24T09:15:08;3.83;;;2.43;;
18455;SDS011;9357;49.900;8.208;2023-04-24T09:16:43;2.70;;;2.50;;
18455;SDS011;9357;49.900;8.208;2023-04-24T09:18:16;3.93;;;2.80;;
18455;SDS011;9357;49.900;8.208;2023-04-24T09:19:49;2.70;;;2.50;;
18455;SDS011;9357;49.900;8.208;2023-04-24T09:21:22;2.90;;;2.60;;
18455;SDS011;9357;49.900;8.208;2023-04-24T09:22:56;2.50;;;2.30;;
18455;SDS011;9357;49.900;8.208;2023-04-24T09:24:30;2.60;;;2.50;;
18455;SDS011;9357;49.900;8.208;2023-04-24T09:26:03;5.00;;;2.10;;
18455;SDS011;9357;49.900;8.208;2023-04-24T09:27:37;2.80;;;2.53;;
18455;SDS011;9357;49.900;8.208;2023-04-24T09:29:14;2.50;;;2.30;;